createdAt,value
2023-09-17T00:02:58.992Z,10.30
2023-09-17T00:06:02.850Z,7.57
2023-09-17T00:09:06.947Z,9.65
2023-09-17T00:12:10.666Z,11.77
2023-09-17T00:15:14.645Z,12.20
2023-09-17T00:18:18.323Z,10.67
2023-09-17T00:21:21.495Z,12.63
2023-09-17T00:24:25.536Z,15.52
2023-09-17T00:27:28.447Z,13.52
2023-09-17T00:30:31.475Z,11.93
2023-09-17T00:33:34.792Z,9.00
2023-09-17T00:36:38.102Z,10.13
2023-09-17T00:39:42.133Z,8.70
2023-09-17T00:42:45.446Z,8.43
2023-09-17T00:45:49.148Z,8.80
2023-09-17T00:48:52.955Z,8.60
2023-09-17T00:51:58.052Z,7.43
2023-09-17T00:55:02.790Z,7.45
2023-09-17T00:58:07.519Z,12.75
2023-09-17T01:01:14.289Z,12.27
2023-09-17T01:04:18.443Z,9.73
2023-09-17T01:07:22.639Z,6.63
2023-09-17T01:10:26.120Z,6.82
2023-09-17T01:13:29.196Z,16.33
2023-09-17T01:16:32.826Z,13.97
2023-09-17T01:19:38.607Z,8.87
2023-09-17T01:22:48.905Z,9.02
2023-09-17T01:25:59.440Z,9.82
2023-09-17T01:29:06.788Z,6.32
2023-09-17T01:32:13.232Z,8.90
2023-09-17T01:35:18.668Z,8.10
2023-09-17T01:38:25.508Z,6.57
2023-09-17T01:41:30.520Z,7.88
2023-09-17T01:44:34.102Z,9.35
2023-09-17T01:47:38.198Z,11.23
2023-09-17T01:50:42.554Z,15.87
2023-09-17T01:53:45.884Z,5.05
2023-09-17T01:56:50.432Z,4.65
2023-09-17T01:59:53.912Z,8.90
2023-09-17T02:02:58.878Z,6.13
2023-09-17T02:06:06.198Z,7.97
2023-09-17T02:09:13.180Z,8.63
2023-09-17T02:12:17.186Z,9.35
2023-09-17T02:15:21.741Z,7.05
2023-09-17T02:18:26.000Z,8.97
2023-09-17T02:21:29.975Z,6.97
2023-09-17T02:24:34.137Z,11.40
2023-09-17T02:27:39.910Z,9.68
2023-09-17T02:30:43.481Z,7.28
2023-09-17T02:33:46.482Z,8.63
2023-09-17T02:36:49.669Z,7.33
2023-09-17T02:39:52.772Z,9.43
2023-09-17T02:42:56.160Z,9.52
2023-09-17T02:45:59.889Z,5.97
2023-09-17T02:49:04.422Z,6.87
2023-09-17T02:52:11.816Z,43.53
2023-09-17T02:55:15.922Z,8.90
2023-09-17T02:58:19.721Z,7.82
2023-09-17T03:01:25.122Z,6.78
2023-09-17T03:04:30.091Z,6.07
2023-09-17T03:07:34.217Z,9.83
2023-09-17T03:10:44.432Z,7.90
2023-09-17T03:13:50.532Z,8.20
2023-09-17T03:16:54.717Z,6.68
2023-09-17T03:19:58.802Z,7.87
2023-09-17T03:23:04.702Z,12.60
2023-09-17T03:26:12.046Z,7.60
2023-09-17T03:29:17.074Z,12.57
2023-09-17T03:32:21.525Z,8.82
2023-09-17T03:35:28.207Z,9.47
2023-09-17T03:38:31.674Z,5.93
2023-09-17T03:41:35.553Z,16.08
2023-09-17T03:48:01.519Z,15.90
2023-09-17T03:51:06.799Z,23.17
2023-09-17T03:54:10.881Z,20.33
2023-09-17T03:57:14.241Z,21.40
2023-09-17T04:00:17.812Z,16.88
2023-09-17T04:03:21.985Z,13.40
2023-09-17T04:06:25.605Z,23.67
2023-09-17T04:09:29.548Z,21.07
2023-09-17T04:12:34.627Z,27.77
2023-09-17T04:15:39.862Z,26.00
2023-09-17T04:18:43.909Z,16.75
2023-09-17T04:21:47.233Z,17.10
2023-09-17T04:24:51.553Z,24.17
2023-09-17T04:27:57.001Z,18.33
2023-09-17T04:31:00.692Z,19.05
2023-09-17T04:34:06.072Z,24.95
2023-09-17T04:37:12.089Z,26.73
2023-09-17T04:40:15.656Z,24.27
2023-09-17T04:43:21.187Z,22.63
2023-09-17T04:46:25.211Z,22.10
2023-09-17T04:49:28.874Z,15.65
2023-09-17T04:52:33.402Z,18.47
2023-09-17T04:55:37.083Z,12.13
2023-09-17T04:58:41.218Z,13.10
2023-09-17T05:01:45.124Z,13.80
2023-09-17T05:04:48.593Z,8.98
2023-09-17T05:07:51.641Z,9.17
2023-09-17T05:10:55.245Z,10.43
2023-09-17T05:14:03.094Z,6.82
2023-09-17T05:17:07.106Z,7.82
2023-09-17T05:20:10.753Z,7.75
2023-09-17T05:23:14.643Z,8.25
2023-09-17T05:26:19.425Z,5.33
2023-09-17T05:29:23.630Z,6.20
2023-09-17T05:32:26.821Z,5.30
2023-09-17T05:35:30.786Z,8.23
2023-09-17T05:38:33.914Z,12.73
2023-09-17T05:41:41.432Z,14.33
2023-09-17T05:44:44.904Z,9.45
2023-09-17T05:47:48.534Z,7.40
2023-09-17T05:50:59.288Z,8.75
2023-09-17T05:54:04.866Z,5.90
2023-09-17T05:57:08.740Z,9.90
2023-09-17T06:00:12.837Z,8.52
2023-09-17T06:03:18.592Z,6.32
2023-09-17T06:06:21.991Z,6.97
2023-09-17T06:09:25.812Z,6.35
2023-09-17T06:12:30.037Z,6.57
2023-09-17T06:15:33.543Z,6.05
2023-09-17T06:18:37.710Z,6.57
2023-09-17T06:21:42.089Z,7.47
2023-09-17T06:24:46.807Z,10.90
2023-09-17T06:27:50.495Z,7.17
2023-09-17T06:30:55.289Z,10.65
2023-09-17T06:33:59.127Z,5.35
2023-09-17T06:37:03.582Z,7.47
2023-09-17T06:40:09.902Z,8.20
2023-09-17T06:43:15.167Z,6.27
2023-09-17T06:46:18.992Z,9.25
2023-09-17T06:49:22.123Z,6.85
2023-09-17T06:52:26.819Z,13.40
2023-09-17T06:55:30.223Z,17.98
2023-09-17T06:58:33.280Z,9.27
2023-09-17T07:01:36.883Z,12.48
2023-09-17T07:04:40.239Z,7.55
2023-09-17T07:07:44.048Z,9.07
2023-09-17T07:10:47.480Z,4.30
2023-09-17T07:13:51.799Z,6.20
2023-09-17T07:16:55.220Z,6.63
2023-09-17T07:19:58.330Z,8.95
2023-09-17T07:23:02.448Z,5.50
2023-09-17T07:26:08.351Z,5.60
2023-09-17T07:29:11.666Z,6.30
2023-09-17T07:32:14.741Z,7.38
2023-09-17T07:35:18.795Z,8.68
2023-09-17T07:38:21.782Z,6.70
2023-09-17T07:41:25.099Z,5.47
2023-09-17T07:44:28.501Z,4.67
2023-09-17T07:47:32.249Z,6.35
2023-09-17T07:50:36.042Z,7.18
2023-09-17T07:53:40.080Z,13.52
2023-09-17T07:56:43.446Z,11.07
2023-09-17T07:59:49.644Z,8.33
2023-09-17T08:02:53.699Z,8.52
2023-09-17T08:05:58.938Z,8.27
2023-09-17T08:09:02.011Z,4.82
2023-09-17T08:12:05.614Z,7.40
2023-09-17T08:15:09.779Z,13.83
2023-09-17T08:18:14.070Z,8.73
2023-09-17T08:21:17.683Z,8.25
2023-09-17T08:24:26.869Z,10.23
2023-09-17T08:27:30.904Z,4.57
2023-09-17T08:30:34.747Z,11.67
2023-09-17T08:33:38.496Z,7.13
2023-09-17T08:36:42.877Z,8.60
2023-09-17T08:39:47.186Z,13.80
2023-09-17T08:42:52.280Z,6.00
2023-09-17T08:45:57.304Z,5.50
2023-09-17T08:49:03.137Z,7.07
2023-09-17T08:52:09.223Z,8.93
2023-09-17T08:55:15.542Z,10.90
2023-09-17T08:58:26.069Z,7.47
2023-09-17T09:01:30.660Z,8.20
2023-09-17T09:04:38.589Z,8.02
2023-09-17T09:07:43.480Z,7.63
2023-09-17T09:10:48.352Z,5.82
2023-09-17T09:13:54.891Z,11.97
2023-09-17T09:16:59.032Z,13.07
2023-09-17T09:20:06.591Z,5.07
2023-09-17T09:23:10.691Z,6.90
2023-09-17T09:26:13.610Z,8.27
2023-09-17T09:29:16.993Z,9.23
2023-09-17T09:32:21.127Z,10.10
2023-09-17T09:35:26.401Z,10.88
2023-09-17T09:38:31.337Z,18.65
2023-09-17T09:41:35.379Z,10.75
2023-09-17T09:44:39.178Z,11.90
2023-09-17T09:47:48.413Z,10.80
2023-09-17T09:50:53.943Z,9.50
2023-09-17T09:53:58.405Z,9.32
2023-09-17T09:57:05.116Z,13.63
2023-09-17T10:00:16.974Z,6.90
2023-09-17T10:03:21.933Z,8.53
2023-09-17T10:06:26.301Z,6.43
2023-09-17T10:09:33.150Z,6.88
2023-09-17T10:12:36.845Z,28.00
2023-09-17T10:15:45.867Z,17.13
2023-09-17T10:18:52.664Z,14.17
2023-09-17T10:21:57.668Z,6.95
2023-09-17T10:25:04.378Z,8.05
2023-09-17T10:28:11.742Z,7.28
2023-09-17T10:31:18.047Z,6.40
2023-09-17T10:34:23.476Z,6.77
2023-09-17T10:37:29.897Z,8.95
2023-09-17T10:40:35.335Z,11.48
2023-09-17T10:43:39.664Z,12.63
2023-09-17T10:46:47.048Z,13.80
2023-09-17T10:49:52.303Z,37.80
2023-09-17T10:52:56.322Z,21.02
2023-09-17T10:56:10.268Z,21.83
2023-09-17T10:59:15.963Z,25.08
2023-09-17T11:02:20.950Z,26.80
2023-09-17T11:05:29.089Z,37.20
2023-09-17T11:08:33.104Z,36.13
2023-09-17T11:11:37.195Z,33.85
2023-09-17T11:14:42.689Z,47.53
2023-09-17T11:17:52.072Z,38.70
2023-09-17T11:21:08.998Z,42.13
2023-09-17T11:24:14.297Z,43.42
2023-09-17T11:27:22.129Z,40.90
2023-09-17T11:30:26.233Z,44.55
2023-09-17T11:33:31.013Z,40.63
2023-09-17T11:36:36.676Z,48.17
2023-09-17T11:39:51.839Z,67.10
2023-09-17T11:42:55.365Z,52.05
2023-09-17T11:46:00.523Z,55.75
2023-09-17T11:49:04.496Z,62.87
2023-09-17T11:52:12.748Z,63.20
2023-09-17T11:55:25.427Z,63.45
2023-09-17T11:58:33.902Z,53.75
2023-09-17T12:02:02.629Z,40.40
2023-09-17T12:05:06.711Z,41.43
2023-09-17T12:08:11.379Z,46.43
2023-09-17T12:11:23.762Z,44.15
2023-09-17T12:14:28.227Z,45.08
2023-09-17T12:17:41.834Z,54.63
2023-09-17T12:21:01.147Z,58.33
2023-09-17T12:24:10.037Z,71.07
2023-09-17T12:27:37.250Z,43.58
2023-09-17T12:30:40.672Z,31.63
2023-09-17T12:33:45.014Z,26.15
2023-09-17T12:36:49.081Z,26.23
2023-09-17T12:39:54.135Z,32.43
2023-09-17T12:42:57.812Z,29.23
2023-09-17T12:46:01.708Z,16.73
2023-09-17T12:49:05.592Z,11.23
2023-09-17T12:52:09.296Z,15.27
2023-09-17T12:55:13.697Z,9.37
2023-09-17T12:58:20.662Z,10.95
2023-09-17T13:01:24.415Z,13.80
2023-09-17T13:04:35.350Z,7.38
2023-09-17T13:07:39.852Z,7.70
2023-09-17T13:10:43.723Z,8.20
2023-09-17T13:13:49.347Z,6.20
2023-09-17T13:16:54.100Z,7.57
2023-09-17T13:19:59.301Z,8.82
2023-09-17T13:23:03.111Z,10.40
2023-09-17T13:26:11.216Z,6.13
2023-09-17T13:29:14.878Z,9.23
2023-09-17T13:32:20.812Z,10.57
2023-09-17T13:35:25.717Z,11.15
2023-09-17T13:38:30.012Z,11.70
2023-09-17T13:41:34.149Z,7.43
2023-09-17T13:44:39.164Z,8.15
2023-09-17T13:47:42.762Z,8.60
2023-09-17T13:50:47.571Z,20.77
2023-09-17T13:53:51.126Z,16.50
2023-09-17T13:56:55.080Z,19.50
2023-09-17T13:59:58.088Z,20.60
2023-09-17T14:03:06.646Z,24.00
2023-09-17T14:06:11.406Z,21.02
2023-09-17T14:09:14.356Z,26.03
2023-09-17T14:12:19.636Z,20.50
2023-09-17T14:15:23.415Z,25.88
2023-09-17T14:18:26.394Z,22.00
2023-09-17T14:21:29.733Z,24.48
2023-09-17T14:24:32.749Z,30.17
2023-09-17T14:27:37.564Z,35.23
2023-09-17T14:30:41.421Z,26.80
2023-09-17T14:33:45.008Z,30.67
2023-09-17T14:36:48.682Z,35.10
2023-09-17T14:39:52.464Z,31.80
2023-09-17T14:42:56.947Z,31.67
2023-09-17T14:46:00.025Z,35.60
2023-09-17T14:49:03.777Z,38.25
2023-09-17T14:52:07.080Z,37.80
2023-09-17T14:55:11.260Z,36.00
2023-09-17T14:58:15.381Z,48.07
2023-09-17T15:01:40.530Z,56.53
2023-09-17T15:04:41.406Z,50.88
2023-09-17T15:07:44.772Z,44.88
2023-09-17T15:10:47.721Z,33.27
2023-09-17T15:13:50.590Z,33.40
2023-09-17T15:16:53.932Z,32.15
2023-09-17T15:19:57.231Z,30.73
2023-09-17T15:23:00.959Z,25.63
2023-09-17T15:26:04.652Z,30.50
2023-09-17T15:29:12.472Z,35.27
2023-09-17T15:32:16.022Z,42.67
2023-09-17T15:35:20.974Z,42.20
2023-09-17T15:38:25.025Z,42.90
2023-09-17T15:41:31.740Z,43.67
2023-09-17T15:44:35.036Z,40.77
2023-09-17T15:47:41.831Z,38.08
2023-09-17T15:50:45.273Z,39.15
2023-09-17T15:53:49.041Z,45.10
2023-09-17T15:56:52.410Z,40.33
2023-09-17T15:59:55.369Z,51.37
2023-09-17T16:02:59.370Z,61.55
2023-09-17T16:06:03.571Z,67.55
2023-09-17T16:09:07.459Z,63.85
2023-09-17T16:12:10.513Z,61.53
2023-09-17T16:15:14.467Z,69.53
2023-09-17T16:18:18.119Z,65.55
2023-09-17T16:21:21.913Z,72.28
2023-09-17T16:24:24.825Z,71.45
2023-09-17T16:27:28.804Z,68.33
2023-09-17T16:30:32.811Z,64.27
2023-09-17T16:33:36.515Z,66.38
2023-09-17T16:36:41.949Z,68.68
2023-09-17T16:39:45.929Z,63.67
2023-09-17T16:43:02.306Z,70.90
2023-09-17T16:46:11.714Z,67.43
2023-09-17T16:49:15.893Z,65.25
2023-09-17T16:52:20.590Z,66.00
2023-09-17T16:55:24.502Z,68.18
2023-09-17T16:58:28.051Z,74.10
2023-09-17T17:01:32.642Z,73.73
2023-09-17T17:04:36.217Z,76.20
2023-09-17T17:07:41.725Z,74.78
2023-09-17T17:10:45.624Z,70.57
2023-09-17T17:17:10.337Z,55.97
2023-09-17T17:20:14.682Z,59.42
2023-09-17T17:23:18.454Z,47.75
2023-09-17T17:26:22.079Z,40.10
2023-09-17T17:29:26.086Z,35.00
2023-09-17T17:32:30.626Z,38.63
2023-09-17T17:35:34.378Z,39.70
2023-09-17T17:38:38.485Z,40.92
2023-09-17T17:41:42.259Z,36.83
2023-09-17T17:44:46.297Z,34.10
2023-09-17T17:47:50.224Z,27.37
2023-09-17T17:50:54.529Z,26.88
2023-09-17T17:53:57.430Z,27.38
2023-09-17T17:57:01.474Z,30.88
2023-09-17T18:00:07.520Z,37.23
2023-09-17T18:03:13.505Z,30.47
2023-09-17T18:06:17.521Z,33.50
2023-09-17T18:09:20.775Z,35.38
2023-09-17T18:12:23.814Z,43.33
2023-09-17T18:15:27.267Z,44.97
2023-09-17T18:18:31.178Z,34.30
2023-09-17T18:21:35.173Z,35.55
2023-09-17T18:24:39.285Z,35.42
2023-09-17T18:27:42.625Z,40.08
2023-09-17T18:30:46.283Z,35.23
2023-09-17T18:33:49.556Z,37.53
2023-09-17T18:36:53.572Z,44.17
2023-09-17T18:39:57.232Z,35.33
2023-09-17T18:43:02.345Z,38.78
2023-09-17T18:46:07.157Z,36.17
2023-09-17T18:49:11.589Z,32.90
2023-09-17T18:52:16.112Z,23.75
2023-09-17T18:55:19.694Z,27.15
2023-09-17T18:58:22.968Z,26.40
2023-09-17T19:01:25.948Z,24.00
2023-09-17T19:04:30.844Z,19.83
2023-09-17T19:07:35.821Z,16.38
2023-09-17T19:10:39.894Z,17.80
2023-09-17T19:13:43.674Z,14.82
2023-09-17T19:16:47.138Z,14.60
2023-09-17T19:19:50.148Z,17.33
2023-09-17T19:22:53.470Z,18.08
2023-09-17T19:25:56.391Z,23.02
2023-09-17T19:29:01.361Z,24.48
2023-09-17T19:32:05.356Z,21.63
2023-09-17T19:35:09.800Z,22.17
2023-09-17T19:38:13.402Z,20.73
2023-09-17T19:41:17.029Z,20.52
2023-09-17T19:44:20.401Z,19.48
2023-09-17T19:47:23.985Z,23.87
2023-09-17T19:50:28.391Z,22.00
2023-09-17T19:53:31.448Z,21.42
2023-09-17T19:56:35.632Z,22.90
2023-09-17T19:59:39.274Z,23.30
2023-09-17T20:02:43.520Z,80.90
2023-09-17T20:05:47.241Z,72.83
2023-09-17T20:08:51.074Z,62.10
2023-09-17T20:11:56.934Z,38.38
2023-09-17T20:15:00.871Z,31.23
2023-09-17T20:18:03.835Z,30.40
2023-09-17T20:21:07.991Z,29.83
2023-09-17T20:24:11.284Z,28.77
2023-09-17T20:27:14.912Z,24.60
2023-09-17T20:30:17.863Z,30.23
2023-09-17T20:33:22.844Z,27.03
2023-09-17T20:36:26.714Z,25.40
2023-09-17T20:39:30.697Z,18.95
2023-09-17T20:42:34.618Z,16.80
2023-09-17T20:45:38.345Z,18.10
2023-09-17T20:48:41.306Z,18.57
2023-09-17T20:51:44.589Z,21.67
2023-09-17T20:54:47.814Z,17.08
2023-09-17T20:57:51.719Z,15.18
2023-09-17T21:00:54.720Z,15.43
2023-09-17T21:03:58.923Z,19.60
2023-09-17T21:07:02.132Z,20.50
2023-09-17T21:13:27.285Z,22.05
2023-09-17T21:16:31.324Z,21.88
2023-09-17T21:19:35.857Z,19.80
2023-09-17T21:22:42.569Z,23.73
2023-09-17T21:25:46.683Z,17.75
2023-09-17T21:28:50.034Z,16.20
2023-09-17T21:31:54.490Z,14.48
2023-09-17T21:34:58.038Z,15.27
2023-09-17T21:38:02.328Z,13.20
2023-09-17T21:41:06.147Z,17.20
2023-09-17T21:44:10.425Z,15.82
2023-09-17T21:47:13.370Z,14.48
2023-09-17T21:50:17.107Z,15.33
2023-09-17T21:53:25.349Z,17.50
2023-09-17T21:56:28.805Z,18.25
2023-09-17T21:59:32.244Z,16.77
2023-09-17T22:02:35.476Z,18.65
2023-09-17T22:05:39.408Z,17.07
2023-09-17T22:08:42.358Z,13.83
2023-09-17T22:11:45.351Z,30.63
2023-09-17T22:14:48.928Z,25.20
2023-09-17T22:17:53.888Z,28.40
2023-09-17T22:21:09.186Z,29.23
2023-09-17T22:24:13.113Z,22.13
2023-09-17T22:27:17.138Z,23.60
2023-09-17T22:30:20.840Z,25.35
2023-09-17T22:33:24.750Z,43.17
2023-09-17T22:36:27.720Z,25.63
2023-09-17T22:39:31.807Z,30.67
2023-09-17T22:42:37.928Z,25.73
2023-09-17T22:45:41.267Z,28.52
2023-09-17T22:48:51.857Z,44.45
2023-09-17T22:51:57.087Z,42.63
2023-09-17T22:55:00.708Z,45.57
2023-09-17T22:58:04.398Z,48.22
2023-09-17T23:01:09.836Z,29.92
2023-09-17T23:04:13.971Z,39.72
2023-09-17T23:07:18.223Z,35.67
2023-09-17T23:10:21.550Z,40.80
2023-09-17T23:13:25.948Z,32.88
2023-09-17T23:16:29.672Z,34.63
2023-09-17T23:19:32.962Z,20.38
2023-09-17T23:22:37.042Z,28.13
2023-09-17T23:25:41.956Z,24.20
2023-09-17T23:28:48.314Z,27.33
2023-09-17T23:31:52.065Z,23.70
2023-09-17T23:34:56.895Z,26.83
2023-09-17T23:38:00.588Z,22.20
2023-09-17T23:41:04.581Z,21.03
2023-09-17T23:44:07.745Z,20.33
2023-09-17T23:47:11.444Z,12.38
2023-09-17T23:50:15.849Z,13.13
2023-09-17T23:53:19.965Z,16.17
2023-09-17T23:56:22.919Z,14.77
2023-09-17T23:59:26.750Z,18.20
